createdAt,value
2018-03-14T00:01:22.529Z,11.07
2018-03-14T00:03:50.094Z,11.23
2018-03-14T00:06:17.648Z,12.23
2018-03-14T00:08:45.189Z,11.63
2018-03-14T00:11:12.762Z,11.90
2018-03-14T00:13:40.307Z,13.07
2018-03-14T00:16:08.010Z,13.20
2018-03-14T00:18:35.558Z,13.87
2018-03-14T00:21:03.119Z,12.73
2018-03-14T00:23:30.700Z,12.47
2018-03-14T00:25:58.303Z,13.23
2018-03-14T00:28:25.932Z,13.53
2018-03-14T00:30:53.505Z,14.07
2018-03-14T00:33:21.057Z,13.33
2018-03-14T00:35:48.634Z,13.93
2018-03-14T00:38:16.192Z,14.20
2018-03-14T00:40:43.754Z,13.57
2018-03-14T00:43:11.309Z,14.70
2018-03-14T00:45:38.909Z,15.00
2018-03-14T00:48:06.551Z,14.73
2018-03-14T00:50:34.108Z,14.83
2018-03-14T00:53:01.777Z,14.40
2018-03-14T00:55:29.361Z,15.80
2018-03-14T00:57:56.963Z,15.23
2018-03-14T01:00:24.516Z,14.77
2018-03-14T01:02:52.074Z,15.17
2018-03-14T01:05:19.690Z,15.30
2018-03-14T01:07:47.325Z,14.83
2018-03-14T01:10:14.881Z,14.83
2018-03-14T01:12:42.467Z,14.50
2018-03-14T01:15:10.017Z,14.47
2018-03-14T01:17:37.609Z,15.00
2018-03-14T01:20:05.171Z,15.33
2018-03-14T01:22:32.726Z,14.20
2018-03-14T01:25:00.285Z,14.47
2018-03-14T01:27:27.836Z,14.90
2018-03-14T01:29:55.396Z,13.60
2018-03-14T01:32:22.974Z,14.80
2018-03-14T01:34:50.542Z,14.50
2018-03-14T01:37:18.117Z,13.57
2018-03-14T01:39:45.684Z,13.33
2018-03-14T01:42:13.244Z,12.00
2018-03-14T01:44:40.839Z,13.00
2018-03-14T01:47:08.409Z,12.67
2018-03-14T01:49:36.042Z,12.50
2018-03-14T01:52:03.604Z,12.83
2018-03-14T01:54:31.201Z,13.67
2018-03-14T01:56:58.790Z,12.57
2018-03-14T01:59:26.408Z,12.27
2018-03-14T02:01:53.969Z,12.53
2018-03-14T02:04:21.530Z,12.07
2018-03-14T02:06:49.145Z,12.33
2018-03-14T02:09:16.732Z,12.50
2018-03-14T02:11:44.307Z,12.17
2018-03-14T02:14:11.874Z,11.83
2018-03-14T02:16:39.448Z,12.43
2018-03-14T02:19:07.007Z,11.13
2018-03-14T02:21:34.575Z,11.10
2018-03-14T02:24:02.139Z,10.73
2018-03-14T02:26:29.733Z,10.27
2018-03-14T02:28:57.332Z,10.23
2018-03-14T02:31:24.884Z,10.57
2018-03-14T02:33:52.529Z,10.57
2018-03-14T02:36:31.867Z,10.40
2018-03-14T02:38:59.422Z,9.83
2018-03-14T02:41:26.980Z,9.83
2018-03-14T02:43:54.538Z,9.07
2018-03-14T02:46:22.090Z,9.23
2018-03-14T02:48:49.645Z,9.30
2018-03-14T02:51:17.195Z,9.03
2018-03-14T02:53:44.750Z,10.33
2018-03-14T02:56:12.303Z,9.00
2018-03-14T02:58:39.883Z,9.67
2018-03-14T03:01:07.450Z,8.73
2018-03-14T03:03:34.995Z,9.23
2018-03-14T03:06:02.549Z,9.17
2018-03-14T03:08:30.090Z,9.37
2018-03-14T03:10:57.655Z,9.00
2018-03-14T03:13:25.206Z,8.97
2018-03-14T03:15:52.752Z,8.97
2018-03-14T03:18:20.295Z,8.37
2018-03-14T03:20:47.838Z,8.90
2018-03-14T03:23:15.378Z,8.77
2018-03-14T03:25:42.933Z,8.73
2018-03-14T03:28:10.490Z,9.77
2018-03-14T03:30:38.039Z,9.17
2018-03-14T03:33:05.581Z,9.70
2018-03-14T03:35:33.126Z,8.97
2018-03-14T03:38:00.674Z,8.67
2018-03-14T03:40:28.200Z,9.60
2018-03-14T03:42:55.778Z,9.03
2018-03-14T03:45:23.332Z,9.23
2018-03-14T03:47:50.933Z,8.47
2018-03-14T03:50:18.465Z,9.30
2018-03-14T03:52:46.006Z,9.60
2018-03-14T03:55:13.550Z,8.77
2018-03-14T03:57:41.084Z,9.40
2018-03-14T04:00:08.627Z,9.00
2018-03-14T04:02:36.152Z,9.40
2018-03-14T04:05:03.704Z,9.13
2018-03-14T04:07:31.328Z,9.53
2018-03-14T04:09:58.890Z,9.10
2018-03-14T04:12:26.813Z,8.90
2018-03-14T04:14:54.357Z,8.93
2018-03-14T04:17:21.920Z,8.77
2018-03-14T04:19:49.483Z,8.67
2018-03-14T04:22:17.020Z,8.87
2018-03-14T04:24:44.567Z,8.67
2018-03-14T04:27:12.110Z,9.20
2018-03-14T04:29:39.647Z,9.00
2018-03-14T04:32:07.220Z,8.87
2018-03-14T04:34:34.769Z,8.33
2018-03-14T04:37:02.304Z,8.90
2018-03-14T04:39:29.851Z,8.23
2018-03-14T04:41:57.398Z,7.87
2018-03-14T04:44:24.934Z,8.93
2018-03-14T04:46:54.255Z,8.47
2018-03-14T04:49:21.795Z,8.30
2018-03-14T04:51:49.328Z,8.03
2018-03-14T04:54:17.386Z,7.70
2018-03-14T04:56:44.921Z,7.70
2018-03-14T04:59:12.462Z,8.27
2018-03-14T05:01:40.033Z,8.07
2018-03-14T05:04:07.573Z,7.10
2018-03-14T05:06:35.128Z,7.37
2018-03-14T05:09:02.686Z,7.70
2018-03-14T05:11:30.253Z,8.17
2018-03-14T05:13:57.798Z,7.33
2018-03-14T05:16:25.377Z,7.67
2018-03-14T05:18:52.926Z,7.23
2018-03-14T05:21:20.478Z,6.67
2018-03-14T05:23:48.059Z,7.23
2018-03-14T05:26:15.602Z,6.70
2018-03-14T05:28:43.138Z,6.57
2018-03-14T05:31:10.674Z,6.70
2018-03-14T05:33:38.215Z,6.63
2018-03-14T05:36:05.761Z,7.13
2018-03-14T05:38:33.301Z,6.03
2018-03-14T05:41:00.861Z,6.53
2018-03-14T05:43:28.400Z,7.00
2018-03-14T05:45:55.942Z,6.40
2018-03-14T05:48:23.478Z,6.97
2018-03-14T05:50:51.014Z,6.10
2018-03-14T05:53:18.573Z,6.80
2018-03-14T05:55:46.107Z,6.20
2018-03-14T05:58:13.658Z,6.63
2018-03-14T06:00:41.206Z,6.37
2018-03-14T06:03:08.749Z,6.30
2018-03-14T06:05:36.290Z,7.23
2018-03-14T06:08:03.834Z,6.90
2018-03-14T06:10:31.392Z,6.77
2018-03-14T06:12:58.946Z,6.63
2018-03-14T06:15:26.500Z,6.27
2018-03-14T06:17:54.054Z,6.87
2018-03-14T06:20:21.591Z,6.33
2018-03-14T06:22:49.138Z,7.27
2018-03-14T06:25:16.716Z,6.87
2018-03-14T06:27:44.263Z,6.60
2018-03-14T06:30:11.811Z,6.47
2018-03-14T06:32:39.351Z,7.20
2018-03-14T06:35:08.062Z,7.17
2018-03-14T06:37:35.607Z,6.67
2018-03-14T06:40:03.148Z,6.40
2018-03-14T06:42:30.698Z,6.77
2018-03-14T06:44:58.232Z,7.20
2018-03-14T06:47:25.776Z,6.73
2018-03-14T06:49:53.327Z,7.03
2018-03-14T06:52:20.888Z,7.07
2018-03-14T06:54:48.434Z,6.90
2018-03-14T06:57:15.979Z,7.40
2018-03-14T06:59:55.585Z,7.77
2018-03-14T07:05:40.427Z,7.53
2018-03-14T07:08:07.973Z,7.60
2018-03-14T07:10:35.526Z,7.77
2018-03-14T07:13:03.069Z,7.73
2018-03-14T07:15:30.621Z,7.57
2018-03-14T07:17:58.178Z,8.60
2018-03-14T07:20:25.735Z,8.60
2018-03-14T07:22:53.288Z,8.33
2018-03-14T07:25:20.849Z,9.10
2018-03-14T07:27:48.470Z,8.47
2018-03-14T07:30:16.049Z,8.73
2018-03-14T07:32:43.595Z,8.67
2018-03-14T07:35:11.131Z,8.70
2018-03-14T07:37:38.718Z,8.80
2018-03-14T07:40:06.237Z,8.83
2018-03-14T07:42:33.795Z,9.67
2018-03-14T07:45:01.333Z,9.30
2018-03-14T07:47:28.880Z,9.73
2018-03-14T07:49:56.423Z,9.27
2018-03-14T07:52:23.969Z,10.10
2018-03-14T07:54:51.501Z,9.80
2018-03-14T07:57:19.073Z,9.93
2018-03-14T07:59:46.626Z,10.20
2018-03-14T08:02:14.194Z,10.60
2018-03-14T08:04:41.747Z,10.77
2018-03-14T08:07:09.294Z,9.50
2018-03-14T08:09:36.853Z,10.93
2018-03-14T08:12:04.445Z,12.33
2018-03-14T08:14:32.001Z,11.70
2018-03-14T08:16:59.575Z,13.20
2018-03-14T08:19:27.141Z,11.30
2018-03-14T08:21:54.686Z,11.30
2018-03-14T08:24:22.264Z,11.40
2018-03-14T08:26:49.820Z,10.23
2018-03-14T08:29:17.401Z,11.97
2018-03-14T08:31:44.987Z,11.43
2018-03-14T08:34:12.630Z,11.73
2018-03-14T08:36:40.182Z,11.73
2018-03-14T08:39:07.797Z,11.93
2018-03-14T08:41:35.359Z,10.77
2018-03-14T08:44:02.955Z,12.17
2018-03-14T08:46:30.486Z,11.87
2018-03-14T08:48:58.032Z,11.37
2018-03-14T08:51:25.575Z,12.33
2018-03-14T08:53:53.122Z,11.70
2018-03-14T08:56:20.680Z,11.20
2018-03-14T08:58:48.229Z,13.17
2018-03-14T09:01:15.765Z,12.50
2018-03-14T09:03:43.298Z,12.03
2018-03-14T09:06:10.858Z,12.87
2018-03-14T09:08:38.407Z,13.23
2018-03-14T09:11:05.970Z,13.13
2018-03-14T09:13:33.541Z,12.73
2018-03-14T09:16:01.087Z,12.90
2018-03-14T09:18:28.627Z,13.33
2018-03-14T09:20:56.246Z,12.40
2018-03-14T09:23:23.781Z,12.50
2018-03-14T09:25:51.317Z,12.20
2018-03-14T09:28:18.905Z,12.83
2018-03-14T09:30:46.449Z,13.30
2018-03-14T09:33:14.023Z,12.70
2018-03-14T09:35:41.563Z,12.10
2018-03-14T09:38:09.166Z,12.13
2018-03-14T09:40:37.001Z,12.07
2018-03-14T09:43:04.554Z,12.03
2018-03-14T09:45:32.073Z,11.73
2018-03-14T09:47:59.718Z,11.73
2018-03-14T09:50:27.263Z,12.53
2018-03-14T09:52:54.817Z,11.23
2018-03-14T09:55:22.397Z,11.20
2018-03-14T09:57:49.962Z,11.83
2018-03-14T10:00:17.528Z,10.97
2018-03-14T10:02:45.065Z,10.90
2018-03-14T10:05:12.620Z,11.23
2018-03-14T10:07:40.165Z,11.50
2018-03-14T10:10:07.730Z,11.47
2018-03-14T10:12:35.278Z,10.70
2018-03-14T10:15:02.813Z,10.90
2018-03-14T10:17:30.395Z,10.63
2018-03-14T10:19:57.957Z,10.73
2018-03-14T10:22:25.694Z,10.23
2018-03-14T10:24:53.213Z,10.70
2018-03-14T10:27:20.750Z,11.50
2018-03-14T10:29:48.328Z,11.13
2018-03-14T10:32:15.857Z,12.57
2018-03-14T10:34:43.391Z,11.90
2018-03-14T10:37:10.978Z,11.63
2018-03-14T10:39:38.509Z,11.43
2018-03-14T10:42:06.030Z,11.40
2018-03-14T10:44:33.626Z,11.13
2018-03-14T10:47:01.157Z,12.50
2018-03-14T10:49:28.729Z,10.80
2018-03-14T10:51:56.249Z,10.37
2018-03-14T10:54:23.830Z,11.10
2018-03-14T10:56:51.361Z,10.73
2018-03-14T10:59:18.889Z,10.67
2018-03-14T11:01:47.290Z,11.50
2018-03-14T11:04:14.823Z,10.93
2018-03-14T11:06:42.455Z,11.20
2018-03-14T11:09:09.982Z,10.20
2018-03-14T11:11:37.579Z,11.23
2018-03-14T11:14:05.207Z,11.47
2018-03-14T11:16:32.793Z,11.37
2018-03-14T11:19:00.312Z,10.80
2018-03-14T11:21:27.878Z,11.10
2018-03-14T11:23:55.505Z,11.47
2018-03-14T11:26:23.044Z,10.97
2018-03-14T11:28:50.565Z,11.00
2018-03-14T11:31:19.079Z,10.73
2018-03-14T11:33:46.606Z,10.40
2018-03-14T11:36:14.126Z,10.27
2018-03-14T11:38:41.645Z,11.80
2018-03-14T11:41:09.171Z,12.27
2018-03-14T11:43:36.704Z,12.83
2018-03-14T11:46:04.331Z,11.40
2018-03-14T11:48:31.880Z,12.10
2018-03-14T11:50:59.419Z,11.80
2018-03-14T11:53:26.946Z,11.23
2018-03-14T11:55:54.474Z,11.27
2018-03-14T11:58:22.004Z,11.00
2018-03-14T12:00:49.655Z,10.60
2018-03-14T12:03:17.197Z,11.20
2018-03-14T12:05:44.717Z,10.90
2018-03-14T12:08:12.273Z,11.27
2018-03-14T12:10:39.882Z,10.63
2018-03-14T12:13:07.398Z,11.33
2018-03-14T12:15:34.913Z,11.17
2018-03-14T12:18:02.558Z,10.27
2018-03-14T12:20:30.147Z,10.03
2018-03-14T12:22:57.700Z,10.73
2018-03-14T12:25:25.254Z,10.53
2018-03-14T12:27:52.816Z,11.40
2018-03-14T12:30:20.392Z,11.10
2018-03-14T12:32:47.992Z,10.87
2018-03-14T12:35:15.542Z,11.40
2018-03-14T12:37:43.099Z,10.33
2018-03-14T12:40:10.661Z,11.20
2018-03-14T12:42:38.262Z,10.53
2018-03-14T12:45:05.824Z,11.00
2018-03-14T12:47:33.557Z,10.87
2018-03-14T12:50:01.106Z,11.33
2018-03-14T12:52:28.660Z,10.93
2018-03-14T12:54:56.198Z,12.20
2018-03-14T12:57:23.778Z,12.53
2018-03-14T12:59:51.345Z,12.13
2018-03-14T13:02:18.893Z,12.00
2018-03-14T13:04:46.446Z,12.97
2018-03-14T13:07:13.994Z,12.00
2018-03-14T13:09:41.558Z,11.23
2018-03-14T13:12:09.150Z,12.17
2018-03-14T13:14:36.701Z,13.43
2018-03-14T13:17:04.244Z,11.00
2018-03-14T13:19:31.825Z,10.23
2018-03-14T13:21:59.381Z,11.07
2018-03-14T13:24:26.939Z,10.77
2018-03-14T13:26:54.481Z,10.43
2018-03-14T13:29:22.359Z,10.33
2018-03-14T13:31:49.903Z,10.20
2018-03-14T13:34:17.456Z,10.13
2018-03-14T13:36:45.005Z,11.13
2018-03-14T13:39:12.563Z,9.97
2018-03-14T13:41:40.110Z,9.70
2018-03-14T15:06:04.721Z,6.90
2018-03-14T15:08:32.284Z,6.63
2018-03-14T15:10:59.826Z,6.40
2018-03-14T15:13:27.365Z,8.03
2018-03-14T15:15:54.911Z,6.37
2018-03-14T15:18:22.463Z,6.20
2018-03-14T15:20:50.084Z,6.47
2018-03-14T15:23:17.711Z,6.43
2018-03-14T15:25:45.264Z,8.97
2018-03-14T15:28:12.812Z,7.80
2018-03-14T15:30:40.388Z,6.07
2018-03-14T15:33:07.929Z,6.30
2018-03-14T15:35:35.466Z,5.97
2018-03-14T15:38:03.028Z,5.90
2018-03-14T15:40:30.638Z,5.50
2018-03-14T15:42:58.191Z,5.53
2018-03-14T15:45:25.731Z,5.70
2018-03-14T15:47:53.273Z,5.10
2018-03-14T15:50:20.810Z,5.30
2018-03-14T15:52:48.355Z,4.83
2018-03-14T15:55:15.970Z,5.70
2018-03-14T15:57:43.557Z,5.10
2018-03-14T16:00:11.114Z,5.37
2018-03-14T16:02:38.673Z,6.30
2018-03-14T16:05:06.268Z,7.33
2018-03-14T16:07:33.807Z,7.30
2018-03-14T16:10:01.447Z,7.30
2018-03-14T16:12:29.079Z,7.30
2018-03-14T16:14:56.790Z,6.30
2018-03-14T16:17:24.505Z,6.40
2018-03-14T16:19:52.105Z,6.93
2018-03-14T16:22:19.690Z,6.80
2018-03-14T16:24:47.258Z,6.17
2018-03-14T16:27:14.829Z,7.37
2018-03-14T16:29:42.426Z,7.50
2018-03-14T16:32:09.995Z,7.13
2018-03-14T16:34:37.547Z,8.47
2018-03-14T16:37:05.121Z,8.70
2018-03-14T16:39:32.671Z,8.97
2018-03-14T16:42:00.254Z,8.90
2018-03-14T16:44:27.849Z,8.53
2018-03-14T16:46:55.427Z,8.87
2018-03-14T16:49:22.997Z,9.07
2018-03-14T16:51:50.542Z,8.53
2018-03-14T16:54:18.110Z,9.40
2018-03-14T16:56:45.682Z,8.60
2018-03-14T16:59:13.246Z,10.00
2018-03-14T17:01:40.838Z,9.90
2018-03-14T17:04:08.389Z,9.93
2018-03-14T17:06:35.941Z,10.00
2018-03-14T17:09:03.489Z,11.38
2018-03-14T17:11:31.078Z,10.20
2018-03-14T17:13:58.638Z,9.27
2018-03-14T17:16:26.203Z,9.10
2018-03-14T17:18:53.787Z,9.50
2018-03-14T17:21:21.334Z,9.47
2018-03-14T17:23:48.879Z,8.40
2018-03-14T17:26:16.438Z,8.83
2018-03-14T17:28:43.974Z,8.60
2018-03-14T17:31:11.517Z,9.87
2018-03-14T17:33:39.147Z,9.13
2018-03-14T17:36:06.662Z,8.73
2018-03-14T17:38:34.535Z,8.77
2018-03-14T17:41:02.036Z,8.50
2018-03-14T17:43:29.559Z,9.10
2018-03-14T17:45:57.155Z,9.20
2018-03-14T17:48:24.693Z,9.17
2018-03-14T17:50:52.225Z,8.30
2018-03-14T17:53:19.739Z,7.93
2018-03-14T17:55:47.266Z,8.40
2018-03-14T17:58:14.814Z,9.00
2018-03-14T18:00:42.330Z,8.77
2018-03-14T18:03:09.970Z,8.60
2018-03-14T18:05:37.494Z,8.83
2018-03-14T18:08:05.025Z,9.10
2018-03-14T18:10:32.551Z,8.97
2018-03-14T18:13:00.387Z,10.23
2018-03-14T18:15:27.936Z,9.43
2018-03-14T18:17:55.453Z,9.60
2018-03-14T18:20:22.969Z,9.37
2018-03-14T18:22:50.549Z,9.47
2018-03-14T18:25:18.110Z,9.83
2018-03-14T18:27:45.637Z,10.00
2018-03-14T18:30:13.154Z,10.03
2018-03-14T18:32:40.810Z,10.57
2018-03-14T18:35:08.350Z,10.83
2018-03-14T18:37:35.878Z,10.17
2018-03-14T18:40:03.633Z,10.60
2018-03-14T18:42:31.162Z,11.50
2018-03-14T18:44:58.691Z,11.30
2018-03-14T18:47:26.219Z,11.80
2018-03-14T18:49:53.785Z,12.80
2018-03-14T18:52:21.307Z,12.03
2018-03-14T18:54:48.829Z,12.60
2018-03-14T18:57:16.387Z,12.03
2018-03-14T18:59:43.929Z,12.87
2018-03-14T19:02:11.492Z,12.27
2018-03-14T19:04:39.299Z,11.50
2018-03-14T19:07:06.801Z,12.13
2018-03-14T19:09:34.338Z,10.87
2018-03-14T19:12:01.894Z,10.93
2018-03-14T19:14:29.442Z,10.93
2018-03-14T19:16:56.971Z,10.50
2018-03-14T19:19:24.498Z,10.07
2018-03-14T19:21:52.023Z,11.23
2018-03-14T19:24:19.547Z,11.73
2018-03-14T19:26:47.077Z,9.67
2018-03-14T19:29:14.589Z,9.73
2018-03-14T19:31:42.107Z,9.60
2018-03-14T19:34:09.616Z,9.67
2018-03-14T19:36:37.141Z,9.40
2018-03-14T19:39:04.688Z,10.43
2018-03-14T19:41:32.259Z,9.30
2018-03-14T19:43:59.784Z,10.73
2018-03-14T19:46:27.383Z,9.20
2018-03-14T19:48:54.925Z,9.73
2018-03-14T19:51:22.471Z,9.67
2018-03-14T19:53:49.997Z,9.50
2018-03-14T19:56:17.619Z,9.00
2018-03-14T19:58:45.111Z,9.20
2018-03-14T20:01:12.744Z,8.23
2018-03-14T20:03:40.635Z,8.83
2018-03-14T20:06:08.175Z,8.47
2018-03-14T20:08:35.711Z,8.57
2018-03-14T20:11:03.242Z,8.77
2018-03-14T20:13:30.776Z,9.20
2018-03-14T20:15:58.313Z,9.27
2018-03-14T20:18:25.887Z,10.60
2018-03-14T20:20:53.531Z,10.27
2018-03-14T20:23:21.061Z,9.87
2018-03-14T20:25:48.650Z,10.13
2018-03-14T20:28:16.626Z,10.10
2018-03-14T20:30:44.249Z,9.50
2018-03-14T20:33:11.832Z,9.53
2018-03-14T20:35:39.402Z,9.83
2018-03-14T20:38:06.934Z,8.40
2018-03-14T20:40:34.462Z,8.60
2018-03-14T20:43:02.082Z,9.23
2018-03-14T20:45:29.654Z,8.20
2018-03-14T20:47:57.198Z,7.40
2018-03-14T20:50:24.831Z,7.53
2018-03-14T20:52:52.630Z,9.03
2018-03-14T20:55:20.158Z,11.90
2018-03-14T20:57:48.058Z,12.33
2018-03-14T21:00:15.641Z,12.60
2018-03-14T21:02:43.177Z,12.87
2018-03-14T21:05:10.742Z,13.17
2018-03-14T21:07:38.261Z,12.67
2018-03-14T21:10:05.882Z,14.53
2018-03-14T21:12:33.519Z,13.77
2018-03-14T21:15:01.373Z,14.87
2018-03-14T21:17:28.961Z,14.30
2018-03-14T21:19:56.610Z,15.47
2018-03-14T21:22:24.134Z,14.20
2018-03-14T21:24:52.233Z,16.27
2018-03-14T21:27:19.769Z,18.63
2018-03-14T21:29:47.297Z,15.77
2018-03-14T21:32:15.154Z,16.20
2018-03-14T21:34:42.695Z,16.77
2018-03-14T21:37:10.216Z,16.23
2018-03-14T21:39:37.757Z,15.67
2018-03-14T21:42:05.294Z,16.13
2018-03-14T21:44:32.819Z,16.20
2018-03-14T21:47:00.434Z,16.03
2018-03-14T21:49:27.898Z,14.97
2018-03-14T21:51:55.470Z,15.37
2018-03-14T21:54:23.380Z,13.40
2018-03-14T21:56:51.088Z,13.53
2018-03-14T21:59:18.637Z,13.40
2018-03-14T22:01:46.196Z,16.70
2018-03-14T22:04:13.919Z,14.93
2018-03-14T22:06:41.441Z,14.57
2018-03-14T22:09:09.234Z,13.90
2018-03-14T22:14:29.802Z,14.93
2018-03-14T22:16:57.764Z,13.97
2018-03-14T22:19:25.633Z,17.35
2018-03-14T22:21:53.682Z,14.37
2018-03-14T22:24:21.525Z,13.10
2018-03-14T22:26:49.437Z,15.35
2018-03-14T22:29:17.405Z,12.00
2018-03-14T22:31:45.491Z,12.70
2018-03-14T22:34:13.100Z,12.10
2018-03-14T22:36:40.630Z,11.70
2018-03-14T22:39:08.206Z,11.50
2018-03-14T22:41:35.734Z,13.00
2018-03-14T22:44:03.344Z,12.23
2018-03-14T22:46:30.867Z,12.20
2018-03-14T22:48:58.384Z,11.33
2018-03-14T22:51:25.918Z,12.30
2018-03-14T22:53:53.445Z,12.07
2018-03-14T22:56:20.961Z,11.80
2018-03-14T22:58:48.497Z,12.80
2018-03-14T23:01:16.019Z,12.37
2018-03-14T23:03:43.561Z,12.53
2018-03-14T23:06:11.124Z,12.40
2018-03-14T23:08:38.681Z,12.53
2018-03-14T23:11:06.297Z,12.70
2018-03-14T23:13:33.965Z,12.77
